Terminal Aerodrome Forecast
Issued by NWS Springfield, MO

Home | Current Version | Previous Version | Text Only | Print | Product List | Glossary On
Versions: 1 2 3 4 5 6 7 8 9 10 11 12 13 14 15 16 17 18 19 20 21
000
FTUS43 KSGF 202300 CCA
TAFSGF
TAF
KSGF 202330Z 2100/2124 20009KT P6SM SCT060 OVC150
     FM210100 16008KT P6SM SCT060 OVC120
     FM210800 16008KT 5SM -SHRA BR FEW030 OVC060
     FM211100 18006KT 5SM -SHRA BR BKN025 OVC040
      TEMPO 2111/2115 3SM SHRA BR SCT015 OVC025
     FM211500 23008KT 5SM -SHRA BR SCT015 OVC030
     FM212100 27010KT P6SM -SHRA VCTS BKN040CB OVC120=

USA.gov is the U.S. government's official web portal to all federal, state and local government web resources and services.